Time;durP1;ratioP1;P1;durP2;ratioP2;P2;SDS_P1;SDS_P2;PMS_P1;PMS_P2;Temp;Humidity;BMP_temperature;BMP_pressure;BME280_temperature;BME280_humidity;BME280_pressure;Samples;Min_cycle;Max_cycle;Signal;HPM_P1;HPM_P2
2022/12/03 13:22:00;;;;;;;;;26.50;21.50;;;;;5.69;100.00;101351.75;5859230;22;50477;-67
2022/12/03 13:24:41;;;;;;;;;26.00;23.00;;;;;5.86;100.00;101365.63;4953061;28;49634;-69
2022/12/03 13:27:12;;;;;;;;;23.25;22.00;;;;;5.79;100.00;101366.13;4944217;28;49848;-69
2022/12/03 13:29:38;;;;;;;;;17.75;17.25;;;;;5.54;100.00;101340.59;4949557;28;50370;-70
2022/12/03 13:32:35;;;;;;;;;20.50;18.00;;;;;5.86;100.00;101361.31;4953611;28;49851;-71
2022/12/03 13:35:24;;;;;;;;;22.00;22.00;;;;;5.86;100.00;101352.59;4952013;28;49684;-69
2022/12/03 13:37:49;;;;;;;;;26.75;19.50;;;;;5.83;100.00;101349.84;4953110;28;50109;-68
2022/12/03 13:40:33;;;;;;;;;26.50;21.50;;;;;5.86;100.00;101356.09;4953104;28;50420;-70
2022/12/03 13:43:02;;;;;;;;;18.25;16.25;;;;;5.79;100.00;101347.91;4953115;28;49758;-69
2022/12/03 13:45:39;;;;;;;;;25.25;21.75;;;;;5.27;100.00;101273.28;4952864;28;49575;-70
2022/12/03 13:48:29;;;;;;;;;22.50;18.25;;;;;5.78;100.00;101346.13;4953584;28;49797;-68
2022/12/03 13:50:55;;;;;;;;;15.25;14.50;;;;;5.71;100.00;101337.13;4952625;28;50550;-67
2022/12/03 13:53:21;;;;;;;;;23.25;20.25;;;;;5.80;100.00;101334.97;4952860;28;49991;-69
2022/12/03 13:55:51;;;;;;;;;16.00;16.00;;;;;5.73;100.00;101333.78;4952926;28;49700;-68
2022/12/03 13:58:16;;;;;;;;;23.25;21.50;;;;;5.74;100.00;101337.25;4952916;28;49857;-68
2022/12/03 14:00:41;;;;;;;;;24.75;21.75;;;;;5.62;100.00;101316.72;4952892;28;49757;-68
2022/12/03 14:03:07;;;;;;;;;25.25;20.00;;;;;5.57;100.00;101319.91;4952964;28;49874;-71
2022/12/03 14:05:33;;;;;;;;;18.25;17.00;;;;;4.78;100.00;101226.56;4951343;28;49763;-72
2022/12/03 14:08:00;;;;;;;;;22.00;17.75;;;;;5.47;100.00;101303.81;4952914;28;49970;-72
2022/12/03 14:10:27;;;;;;;;;23.75;19.00;;;;;5.50;100.00;101291.75;4952378;28;50878;-73
2022/12/03 14:12:53;;;;;;;;;22.75;22.00;;;;;5.32;100.00;101255.31;4952474;28;49753;-72
2022/12/03 14:15:18;;;;;;;;;17.50;15.00;;;;;5.58;100.00;101306.06;4952731;28;49973;-72
2022/12/03 14:17:43;;;;;;;;;22.75;21.00;;;;;5.68;100.00;101309.19;4952725;28;49737;-72
2022/12/03 14:20:10;;;;;;;;;21.75;20.25;;;;;5.63;100.00;101307.19;4952437;28;50108;-69
2022/12/03 14:22:36;;;;;;;;;25.00;18.25;;;;;5.50;100.00;101305.72;4953184;28;49839;-71
2022/12/03 14:25:04;;;;;;;;;19.50;16.75;;;;;5.54;100.00;101314.56;4952809;28;49749;-67
2022/12/03 14:27:29;;;;;;;;;22.50;20.00;;;;;5.46;100.00;101327.19;4952620;28;50008;-68
2022/12/03 14:29:55;;;;;;;;;17.00;17.00;;;;;5.46;100.00;101322.88;4952430;28;49674;-68
2022/12/03 14:32:20;;;;;;;;;26.75;22.00;;;;;5.52;100.00;101324.00;4952099;28;54475;-68
2022/12/03 14:34:45;;;;;;;;;21.25;20.50;;;;;5.42;100.00;101307.91;4951586;28;49810;-69
2022/12/03 14:37:11;;;;;;;;;19.00;19.00;;;;;5.67;100.00;101332.56;4951952;28;55572;-69
2022/12/03 14:39:36;;;;;;;;;19.00;17.00;;;;;5.67;100.00;101327.34;4952200;28;50925;-70
2022/12/03 14:42:14;;;;;;;;;18.75;16.00;;;;;5.62;100.00;101328.84;4952077;28;49726;-69
2022/12/03 14:44:44;;;;;;;;;21.00;19.00;;;;;5.70;100.00;101325.81;4952560;28;49799;-66
2022/12/03 14:47:11;;;;;;;;;18.00;17.75;;;;;5.50;100.00;101307.38;4952248;28;49951;-67
2022/12/03 14:49:37;;;;;;;;;26.75;18.75;;;;;5.09;100.00;101273.25;4950900;28;50675;-69
2022/12/03 14:52:03;;;;;;;;;23.50;22.00;;;;;5.50;100.00;101336.03;4951902;28;49955;-67
2022/12/03 14:54:29;;;;;;;;;24.75;18.75;;;;;5.57;100.00;101344.22;4952196;28;49853;-67
2022/12/03 14:56:54;;;;;;;;;23.50;21.25;;;;;5.54;100.00;101346.69;4952392;28;50093;-67
2022/12/03 14:59:20;;;;;;;;;18.50;18.25;;;;;5.38;100.00;101308.56;4951863;28;49761;-67
2022/12/03 15:01:45;;;;;;;;;19.75;18.25;;;;;5.40;100.00;101321.66;4952172;28;50005;-68
2022/12/03 15:04:11;;;;;;;;;17.00;16.50;;;;;5.36;100.00;101335.34;4952116;28;49790;-67
2022/12/03 15:06:36;;;;;;;;;15.25;14.00;;;;;5.41;100.00;101347.78;4951835;28;49994;-67
2022/12/03 15:09:05;;;;;;;;;24.00;20.25;;;;;5.29;100.00;101347.16;4951531;28;50279;-67
2022/12/03 15:11:31;;;;;;;;;16.75;16.25;;;;;5.24;100.00;101334.72;4951723;28;49797;-67
2022/12/03 15:13:56;;;;;;;;;18.50;18.50;;;;;5.37;100.00;101339.75;4952107;28;49832;-67
2022/12/03 15:16:22;;;;;;;;;18.00;18.00;;;;;5.38;100.00;101333.72;4952068;28;50339;-66
2022/12/03 15:18:47;;;;;;;;;21.00;18.00;;;;;5.20;100.00;101318.03;4951874;28;50852;-67
2022/12/03 15:21:13;;;;;;;;;18.50;18.50;;;;;5.35;100.00;101350.06;4951622;28;49761;-67
2022/12/03 15:23:38;;;;;;;;;17.00;17.00;;;;;5.33;100.00;101340.41;4950982;28;61790;-66
2022/12/03 15:26:03;;;;;;;;;18.50;18.50;;;;;5.30;100.00;101319.41;4950954;28;54946;-72
2022/12/03 15:28:29;;;;;;;;;16.75;16.00;;;;;5.38;100.00;101336.31;4951452;28;50235;-66
2022/12/03 15:30:54;;;;;;;;;18.75;17.75;;;;;5.40;100.00;101340.81;4951404;28;49801;-69
2022/12/03 15:33:19;;;;;;;;;18.75;17.25;;;;;5.25;100.00;101303.56;4951354;28;49677;-70
2022/12/03 15:35:45;;;;;;;;;24.75;21.75;;;;;5.33;100.00;101340.41;4951627;28;49559;-70
2022/12/03 15:38:11;;;;;;;;;17.75;16.75;;;;;5.08;100.00;101309.63;4951217;28;50625;-71
2022/12/03 15:40:39;;;;;;;;;23.25;17.25;;;;;5.30;100.00;101322.91;4951521;28;49670;-68
2022/12/03 15:43:06;;;;;;;;;18.25;18.25;;;;;5.20;100.00;101305.03;4951546;28;49793;-68
2022/12/03 15:45:32;;;;;;;;;20.25;20.25;;;;;5.25;100.00;101331.31;4951473;28;49733;-71
2022/12/03 15:47:57;;;;;;;;;21.50;17.75;;;;;5.08;100.00;101283.59;4954696;28;50485;-70
2022/12/03 15:50:22;;;;;;;;;18.50;15.75;;;;;5.18;100.00;101311.88;4954612;28;49804;-70
2022/12/03 15:52:48;;;;;;;;;16.00;14.00;;;;;5.21;100.00;101318.94;4955052;28;49776;-70
2022/12/03 15:55:13;;;;;;;;;27.75;19.75;;;;;5.15;100.00;101327.34;4953473;28;49831;-69
2022/12/03 15:57:39;;;;;;;;;16.75;16.50;;;;;5.16;100.00;101319.59;4954524;28;49837;-68
2022/12/03 16:00:06;;;;;;;;;25.25;22.25;;;;;5.18;100.00;101335.28;4954470;28;49836;-69
2022/12/03 16:02:34;;;;;;;;;17.25;15.25;;;;;4.76;100.00;101258.53;4954553;28;49971;-70
2022/12/03 16:05:01;;;;;;;;;17.50;17.25;;;;;4.98;100.00;101294.34;4954657;28;49808;-70
2022/12/03 16:07:26;;;;;;;;;24.25;21.75;;;;;5.16;100.00;101318.72;4954577;28;50622;-68
2022/12/03 16:09:52;;;;;;;;;18.50;17.25;;;;;5.18;100.00;101320.56;4954499;28;49781;-70
2022/12/03 16:12:17;;;;;;;;;22.00;18.00;;;;;4.74;100.00;101242.84;4954626;28;49833;-67
2022/12/03 16:14:43;;;;;;;;;28.25;21.25;;;;;5.15;100.00;101320.44;4911298;28;50813;-67
2022/12/03 16:17:08;;;;;;;;;24.25;19.75;;;;;4.97;100.00;101282.16;4914940;28;50769;-68
2022/12/03 16:19:33;;;;;;;;;23.75;18.75;;;;;5.01;100.00;101294.50;4937295;28;50885;-68
2022/12/03 16:21:59;;;;;;;;;26.50;24.25;;;;;5.01;100.00;101304.91;4939260;28;49832;-68
2022/12/03 16:24:24;;;;;;;;;19.50;16.50;;;;;5.05;100.00;101304.25;4934725;28;49979;-67
2022/12/03 16:26:49;;;;;;;;;24.00;21.25;;;;;5.05;100.00;101322.47;4940214;28;49702;-68
2022/12/03 16:29:15;;;;;;;;;19.75;17.25;;;;;4.79;100.00;101276.88;4938124;28;49614;-66
2022/12/03 16:31:40;;;;;;;;;19.25;18.75;;;;;4.90;100.00;101286.13;4937592;28;62190;-67
2022/12/03 16:34:05;;;;;;;;;28.75;23.75;;;;;5.07;100.00;101318.25;4932929;28;49714;-67
2022/12/03 16:36:30;;;;;;;;;22.75;19.25;;;;;5.07;100.00;101320.84;4939861;28;49871;-67
2022/12/03 16:38:56;;;;;;;;;25.50;21.50;;;;;5.07;100.00;101306.13;4938194;28;49886;-67
2022/12/03 16:41:22;;;;;;;;;20.75;19.50;;;;;4.97;100.00;101316.88;4903960;28;50889;-68
2022/12/03 16:43:47;;;;;;;;;24.00;23.25;;;;;4.83;100.00;101292.75;4909222;28;50134;-67
2022/12/03 16:48:39;;;;;;;;;23.00;22.00;;;;;4.94;100.00;101295.00;4939181;28;50040;-69
2022/12/03 16:51:05;;;;;;;;;21.25;19.75;;;;;5.03;100.00;101314.59;4943468;28;50007;-68
2022/12/03 16:53:30;;;;;;;;;25.50;25.50;;;;;4.95;100.00;101300.28;4933936;28;49943;-69
2022/12/03 16:55:55;;;;;;;;;25.75;25.75;;;;;5.09;100.00;101324.41;4937878;28;50913;-69
2022/12/03 16:58:21;;;;;;;;;24.50;22.25;;;;;5.09;100.00;101327.00;4938242;28;49703;-67
2022/12/03 17:00:49;;;;;;;;;25.25;21.00;;;;;5.04;100.00;101312.88;4937153;28;50079;-67
2022/12/03 17:03:16;;;;;;;;;20.50;17.25;;;;;5.01;100.00;101298.00;4933771;28;55213;-65
2022/12/03 17:05:42;;;;;;;;;28.00;22.75;;;;;4.83;100.00;101284.94;4940604;28;50398;-69
2022/12/03 17:08:08;;;;;;;;;25.00;22.50;;;;;5.07;100.00;101313.03;4931356;28;49964;-68
2022/12/03 17:10:33;;;;;;;;;18.25;17.25;;;;;4.44;100.00;101226.56;4943323;28;50682;-67
2022/12/03 17:12:58;;;;;;;;;22.50;20.50;;;;;4.91;100.00;101308.72;4909737;28;50314;-68
2022/12/03 17:15:24;;;;;;;;;21.75;17.75;;;;;4.84;100.00;101317.06;4932633;28;51064;-67
2022/12/03 17:17:49;;;;;;;;;28.25;25.00;;;;;4.87;100.00;101314.59;4934966;28;54696;-69
2022/12/03 17:20:16;;;;;;;;;21.75;21.75;;;;;4.64;100.00;101286.50;4932374;28;49991;-68
2022/12/03 17:22:41;;;;;;;;;21.00;17.75;;;;;4.79;100.00;101311.59;4942409;28;51656;-67
2022/12/03 17:25:08;;;;;;;;;24.75;23.50;;;;;4.85;100.00;101311.03;4936480;28;50474;-67
2022/12/03 17:27:33;;;;;;;;;24.75;22.50;;;;;4.87;100.00;101319.81;4937381;28;50165;-67
2022/12/03 17:29:58;;;;;;;;;28.50;24.50;;;;;4.81;100.00;101306.47;4942474;28;49834;-67
2022/12/03 17:32:24;;;;;;;;;21.75;20.25;;;;;4.83;100.00;101310.06;4934717;28;50846;-67
2022/12/03 17:34:49;;;;;;;;;22.00;20.75;;;;;4.25;100.00;101223.78;4934107;28;49935;-69
2022/12/03 17:37:14;;;;;;;;;24.00;23.75;;;;;4.71;100.00;101306.78;4942396;28;49615;-68
2022/12/03 17:39:40;;;;;;;;;29.25;23.75;;;;;4.72;100.00;101318.97;4941824;28;49834;-67
2022/12/03 17:42:05;;;;;;;;;25.75;23.00;;;;;4.65;100.00;101306.50;4924892;28;50175;-67
2022/12/03 17:44:30;;;;;;;;;24.75;21.50;;;;;4.67;100.00;101302.25;4912766;28;50435;-67
2022/12/03 17:46:56;;;;;;;;;25.75;16.25;;;;;4.58;100.00;101289.66;4899226;28;51523;-67
2022/12/03 17:49:21;;;;;;;;;23.75;23.75;;;;;4.73;100.00;101315.56;4938874;28;49872;-67
2022/12/03 17:51:46;;;;;;;;;21.25;19.75;;;;;4.59;100.00;101283.66;4945220;28;50150;-67
2022/12/03 17:54:12;;;;;;;;;23.25;21.25;;;;;4.77;100.00;101301.94;4944539;28;67275;-66
2022/12/03 17:56:42;;;;;;;;;14.00;12.75;;;;;4.63;100.00;101287.28;4944639;28;49847;-66
2022/12/03 17:59:09;;;;;;;;;24.00;20.75;;;;;4.49;100.00;101263.16;4952894;28;49781;-75
2022/12/03 18:01:34;;;;;;;;;21.00;17.75;;;;;4.23;100.00;101223.69;4952988;28;50064;-66
2022/12/03 18:03:59;;;;;;;;;33.75;25.25;;;;;4.65;100.00;101289.19;4952625;28;52666;-67
2022/12/03 18:06:25;;;;;;;;;29.25;25.50;;;;;4.70;100.00;101294.59;4952390;28;49793;-66
2022/12/03 18:08:50;;;;;;;;;17.75;15.75;;;;;4.63;100.00;101295.97;4951303;28;50016;-67
2022/12/03 18:11:16;;;;;;;;;26.25;21.00;;;;;4.67;100.00;101295.34;4951713;28;49771;-68
2022/12/03 18:13:41;;;;;;;;;25.25;23.50;;;;;4.73;100.00;101289.56;4952205;28;49831;-66
2022/12/03 18:16:07;;;;;;;;;29.25;24.50;;;;;4.63;100.00;101272.56;4951997;28;60163;-76
2022/12/03 18:18:32;;;;;;;;;25.50;24.00;;;;;4.85;100.00;101295.44;4952509;28;49575;-68
2022/12/03 18:21:00;;;;;;;;;19.75;17.75;;;;;4.84;100.00;101281.53;4952460;28;49856;-72
2022/12/03 18:23:27;;;;;;;;;32.25;28.00;;;;;4.90;100.00;101291.34;4952217;28;50563;-74
2022/12/03 18:25:52;;;;;;;;;28.25;23.50;;;;;4.73;100.00;101269.69;4952421;28;49991;-74
2022/12/03 18:28:17;;;;;;;;;27.75;25.25;;;;;4.78;100.00;101286.41;4952483;28;49800;-70
2022/12/03 18:30:43;;;;;;;;;28.50;19.25;;;;;4.70;100.00;101276.41;4950660;28;49864;-68
2022/12/03 18:33:08;;;;;;;;;22.75;22.75;;;;;4.76;100.00;101287.16;4951292;28;50915;-72
2022/12/03 18:35:34;;;;;;;;;21.25;17.75;;;;;4.78;100.00;101280.31;4952172;28;49702;-73
2022/12/03 18:37:59;;;;;;;;;30.00;21.50;;;;;4.46;100.00;101237.91;4951098;28;49804;-66
2022/12/03 18:40:26;;;;;;;;;28.25;27.00;;;;;4.76;100.00;101284.53;4952840;28;49754;-66
2022/12/03 18:42:51;;;;;;;;;19.75;19.25;;;;;4.59;100.00;101257.63;4946341;28;50437;-70
2022/12/03 18:45:17;;;;;;;;;24.75;23.75;;;;;4.43;100.00;101237.72;4949115;28;49928;-71
2022/12/03 18:47:42;;;;;;;;;24.25;21.75;;;;;4.59;100.00;101271.53;4943250;28;50059;-68
2022/12/03 18:50:09;;;;;;;;;22.50;19.25;;;;;4.49;100.00;101264.06;4950387;28;49941;-68
2022/12/03 18:52:35;;;;;;;;;28.25;21.50;;;;;4.60;100.00;101288.03;4943676;28;50111;-68
2022/12/03 18:55:01;;;;;;;;;23.75;21.25;;;;;4.23;100.00;101226.28;4950478;28;49939;-68
2022/12/03 18:57:26;;;;;;;;;28.50;22.75;;;;;4.48;100.00;101269.19;4950671;28;49731;-69
2022/12/03 18:59:51;;;;;;;;;24.50;18.75;;;;;4.71;100.00;101267.78;4943078;28;50012;-69
2022/12/03 19:02:20;;;;;;;;;22.75;21.00;;;;;4.87;100.00;101297.28;4947216;28;49770;-68
2022/12/03 19:04:48;;;;;;;;;29.00;25.50;;;;;4.80;100.00;101294.28;4945805;28;49912;-68
2022/12/03 19:07:14;;;;;;;;;23.25;18.25;;;;;4.55;100.00;101255.72;4944938;28;49781;-68
2022/12/03 19:09:40;;;;;;;;;23.50;20.00;;;;;4.66;100.00;101290.97;4963972;28;50069;-68
2022/12/03 19:12:07;;;;;;;;;23.75;20.00;;;;;4.58;100.00;101287.94;4951936;28;50577;-68
2022/12/03 19:14:35;;;;;;;;;29.00;25.25;;;;;4.53;100.00;101288.50;4945332;28;50092;-68
2022/12/03 19:17:02;;;;;;;;;28.50;24.50;;;;;4.53;100.00;101289.41;4944820;28;49932;-70
2022/12/03 19:19:28;;;;;;;;;22.75;18.50;;;;;4.26;100.00;101241.16;4950169;28;49810;-69
2022/12/03 19:21:54;;;;;;;;;24.00;20.50;;;;;4.10;100.00;101202.16;4948866;28;49778;-70
2022/12/03 19:24:19;;;;;;;;;20.50;20.25;;;;;4.69;100.00;101287.63;4942829;28;49738;-67
2022/12/03 19:26:44;;;;;;;;;22.50;20.50;;;;;4.73;100.00;101285.28;4951091;28;50129;-68
2022/12/03 19:29:10;;;;;;;;;26.25;22.25;;;;;4.32;100.00;101223.28;4950205;28;50403;-68
2022/12/03 19:31:37;;;;;;;;;25.25;25.25;;;;;4.31;100.00;101237.09;4948022;28;49996;-68
2022/12/03 19:34:02;;;;;;;;;33.00;25.75;;;;;4.16;100.00;101231.97;4951504;28;49841;-67
2022/12/03 19:36:30;;;;;;;;;25.50;21.00;;;;;4.33;100.00;101256.25;4949487;28;50279;-71
2022/12/03 19:38:57;;;;;;;;;31.50;26.75;;;;;4.35;100.00;101265.06;4949522;28;49865;-66
2022/12/03 19:41:25;;;;;;;;;27.00;20.25;;;;;4.51;100.00;101293.63;4949499;28;49792;-68
2022/12/03 19:43:53;;;;;;;;;22.25;19.50;;;;;4.09;100.00;101216.88;4951052;28;49682;-75
2022/12/03 19:46:21;;;;;;;;;16.00;14.75;;;;;3.69;100.00;101170.53;4946524;28;49820;-68
2022/12/03 19:48:47;;;;;;;;;29.75;21.00;;;;;4.24;100.00;101246.25;4951355;28;50047;-68
2022/12/03 19:51:14;;;;;;;;;22.75;22.25;;;;;4.17;100.00;101231.16;4948618;28;51051;-69
2022/12/03 19:53:40;;;;;;;;;24.25;20.50;;;;;3.91;100.00;101162.22;4949792;28;49775;-69
2022/12/03 19:56:14;;;;;;;;;27.75;20.75;;;;;4.17;100.00;101236.38;4950822;28;49830;-67
2022/12/03 19:58:43;;;;;;;;;26.75;23.50;;;;;4.07;100.00;101217.59;4943695;28;50184;-69
2022/12/03 20:01:15;;;;;;;;;32.00;28.25;;;;;4.52;100.00;101284.13;4948684;28;50362;-71
2022/12/03 20:03:43;;;;;;;;;23.50;22.00;;;;;4.46;100.00;101282.09;4950957;28;49778;-68
2022/12/03 20:06:09;;;;;;;;;31.50;27.25;;;;;4.39;100.00;101276.50;4946471;28;50023;-70
2022/12/03 20:08:37;;;;;;;;;29.75;24.00;;;;;4.50;100.00;101284.03;4933804;28;50270;-68
2022/12/03 20:11:14;;;;;;;;;27.00;25.75;;;;;4.51;100.00;101295.34;4940628;28;50662;-68
2022/12/03 20:13:40;;;;;;;;;22.75;21.50;;;;;3.87;100.00;101175.84;4950826;28;49772;-68
2022/12/03 20:16:10;;;;;;;;;24.00;21.50;;;;;4.43;100.00;101294.03;4946737;28;49883;-68
2022/12/03 20:18:38;;;;;;;;;20.50;20.25;;;;;4.48;100.00;101295.19;4949051;28;49924;-68
2022/12/03 20:21:04;;;;;;;;;23.50;22.00;;;;;4.40;100.00;101299.97;4951561;28;49685;-68
2022/12/03 20:23:30;;;;;;;;;30.00;22.25;;;;;4.37;100.00;101285.91;4950597;28;50337;-69
2022/12/03 20:25:55;;;;;;;;;21.00;20.25;;;;;4.30;100.00;101269.09;4947213;28;49809;-68
2022/12/03 20:28:20;;;;;;;;;28.00;23.50;;;;;3.88;100.00;101214.00;4951012;28;50142;-68
2022/12/03 20:30:59;;;;;;;;;22.50;19.75;;;;;3.62;100.00;101142.44;4943462;28;49749;-68
2022/12/03 20:33:24;;;;;;;;;23.50;21.50;;;;;4.43;100.00;101275.84;4947883;28;49834;-68
2022/12/03 20:35:52;;;;;;;;;22.50;22.25;;;;;4.54;100.00;101282.53;4953351;28;50317;-68
2022/12/03 20:38:17;;;;;;;;;27.75;23.25;;;;;4.42;100.00;101287.94;4954073;28;49728;-67
2022/12/03 20:40:42;;;;;;;;;26.00;25.75;;;;;4.26;100.00;101242.06;4950368;28;52166;-67
2022/12/03 20:43:08;;;;;;;;;24.50;22.00;;;;;4.20;100.00;101261.59;4953503;28;49810;-68
2022/12/03 20:45:33;;;;;;;;;28.00;23.75;;;;;4.44;100.00;101290.63;4954061;28;49694;-68
2022/12/03 20:47:58;;;;;;;;;22.75;14.75;;;;;4.32;100.00;101257.06;4952604;28;50267;-68
2022/12/03 20:50:24;;;;;;;;;27.50;25.50;;;;;4.39;100.00;101279.97;4950560;28;49777;-68
2022/12/03 20:52:49;;;;;;;;;27.00;24.25;;;;;4.38;100.00;101279.91;4949609;28;49876;-68
2022/12/03 20:55:14;;;;;;;;;26.25;24.25;;;;;4.34;100.00;101267.53;4953792;28;49854;-68
2022/12/03 20:57:40;;;;;;;;;28.50;26.00;;;;;4.48;100.00;101263.97;4950809;28;49745;-68
2022/12/03 21:00:06;;;;;;;;;25.50;24.25;;;;;4.52;100.00;101260.72;4945211;28;52249;-68
2022/12/03 21:02:31;;;;;;;;;20.75;19.25;;;;;4.57;100.00;101261.88;4948219;28;49906;-68
2022/12/03 21:04:56;;;;;;;;;23.00;23.00;;;;;4.36;100.00;101232.16;4953295;28;49705;-67
2022/12/03 21:07:22;;;;;;;;;22.75;20.75;;;;;4.42;100.00;101258.44;4948074;28;50163;-70
2022/12/03 21:09:47;;;;;;;;;23.25;19.75;;;;;4.42;100.00;101246.34;4953147;28;49746;-70
2022/12/03 21:12:12;;;;;;;;;26.25;23.50;;;;;4.50;100.00;101251.97;4949568;28;50039;-69
2022/12/03 21:14:38;;;;;;;;;29.25;27.75;;;;;4.53;100.00;101252.09;4947059;28;52707;-68
2022/12/03 21:17:03;;;;;;;;;22.00;17.00;;;;;4.41;100.00;101257.56;4955139;28;49540;-77
